Hanover, MN (55341)

1:14 AM CDT on March 27, 2015 (GMT -0500)
The Landings On The Crow | | Change Station
CLOSE
Current Station
Personal Weather Station
Location: St Michael, MN
Elevation: 900 ft
Nearby Weather Stations

Elev 900 ft 45.18 °N, 93.65 °W | Updated 5 seconds ago

Clear
Clear
23.7 °F
Feels Like 17 °F
N
4.9
Wind Variable Wind from North
Gusts 8.3 mph

Today
High -- | Low -- °F
--% Chance of Precip.
Yesterday
High -- | Low -- °F
Precip. -- in
7:04 AM 7:35 PM
Waxing Crescent, 49% visible
Pressure 30.24 in
Visibility 10.0 miles
Clouds Clear
Windchill 17 °F
Dew Point -15 °F
Humidity 17%
Rainfall 0.00 in
Snow Depth Not available.
UV 0 out of 12
Pollen 3.50 out of 12
Air Quality Not available.
Flu Activity Not available.
METAR KCFE 270545Z AUTO 35006KT 10SM CLR M05/M13 A3024 RMK AO2

More Conditions Fewer Conditions

Pressure 30.24 in
Visibility 10.0 miles
Clouds Clear
Windchill 17 °F
Dew Point -15 °F
Humidity 17%
Rainfall 0.00 in
Snow Depth Not available.
UV 0 out of 12
Pollen 3.50 out of 12
Air Quality Not available.
Flu Activity Not available.
METAR KCFE 270545Z AUTO 35006KT 10SM CLR M05/M13 A3024 RMK AO2

More Conditions Fewer Conditions

10-Day Weather Forecast

Almanac

Astronomy

Mar. 27, 2015 Rise Set
Actual Time
Civil Twilight
Nautical Twilight
Astronomical Twilight
Moon
Length of Visible Light
Length of Day
Tomorrow will be .
, % of the Moon is Illuminated

Today's Extremes

State Highs State Lows

Community

WunderPhotos

Upload Photos

1,808,700 photos uploaded!

WunderBlogs® & News

Nearby

Air Quality

  Air Quality AQ Index Pollutant
Not available.

Snow Depth

Station Depth Elevation

Earthquake Activity

City Distance Mag. Time & Date
Minimum magnitude displayed is 2.5.

Coastal Water Temperatures

Place Temperature

Stations

Nearby Weather Stations

Station Location Temp. Windchill Dew Point Humidity Wind Precip. Elev Updated Type